sensor_id;sensor_type;location;lat;lon;timestamp;P1;durP1;ratioP1;P2;durP2;ratioP2
64282;SDS011;50497;50.720;-2.084;2022-08-02T00:00:09;6.30;;;1.88;;
64282;SDS011;50497;50.720;-2.084;2022-08-02T00:02:40;5.68;;;2.00;;
64282;SDS011;50497;50.720;-2.084;2022-08-02T00:05:10;7.13;;;1.92;;
64282;SDS011;50497;50.720;-2.084;2022-08-02T00:07:40;6.53;;;1.70;;
64282;SDS011;50497;50.720;-2.084;2022-08-02T00:10:06;4.82;;;1.65;;
64282;SDS011;50497;50.720;-2.084;2022-08-02T00:12:33;3.92;;;1.55;;
64282;SDS011;50497;50.720;-2.084;2022-08-02T00:14:59;4.03;;;1.63;;
64282;SDS011;50497;50.720;-2.084;2022-08-02T00:17:24;5.32;;;1.67;;
64282;SDS011;50497;50.720;-2.084;2022-08-02T00:19:50;3.15;;;1.40;;
64282;SDS011;50497;50.720;-2.084;2022-08-02T00:22:15;4.70;;;1.67;;
64282;SDS011;50497;50.720;-2.084;2022-08-02T00:24:41;6.10;;;2.03;;
64282;SDS011;50497;50.720;-2.084;2022-08-02T00:27:07;5.18;;;2.10;;
64282;SDS011;50497;50.720;-2.084;2022-08-02T00:29:33;5.13;;;2.00;;
64282;SDS011;50497;50.720;-2.084;2022-08-02T00:31:59;5.72;;;2.20;;
64282;SDS011;50497;50.720;-2.084;2022-08-02T00:34:25;6.65;;;2.40;;
64282;SDS011;50497;50.720;-2.084;2022-08-02T00:36:50;5.95;;;2.47;;
64282;SDS011;50497;50.720;-2.084;2022-08-02T00:39:16;6.47;;;2.38;;
64282;SDS011;50497;50.720;-2.084;2022-08-02T00:41:45;5.53;;;2.50;;
64282;SDS011;50497;50.720;-2.084;2022-08-02T00:44:13;6.47;;;2.47;;
64282;SDS011;50497;50.720;-2.084;2022-08-02T00:46:45;6.60;;;2.53;;
64282;SDS011;50497;50.720;-2.084;2022-08-02T00:49:11;6.25;;;2.40;;
64282;SDS011;50497;50.720;-2.084;2022-08-02T00:51:39;6.57;;;2.70;;
64282;SDS011;50497;50.720;-2.084;2022-08-02T00:54:05;5.60;;;2.60;;
64282;SDS011;50497;50.720;-2.084;2022-08-02T00:56:31;9.05;;;3.15;;
64282;SDS011;50497;50.720;-2.084;2022-08-02T00:58:57;7.50;;;3.00;;
64282;SDS011;50497;50.720;-2.084;2022-08-02T01:01:23;9.07;;;4.13;;
64282;SDS011;50497;50.720;-2.084;2022-08-02T01:04:11;10.02;;;4.00;;
64282;SDS011;50497;50.720;-2.084;2022-08-02T01:06:39;9.23;;;3.72;;
64282;SDS011;50497;50.720;-2.084;2022-08-02T01:09:10;8.20;;;2.60;;
64282;SDS011;50497;50.720;-2.084;2022-08-02T01:11:35;7.35;;;2.60;;
64282;SDS011;50497;50.720;-2.084;2022-08-02T01:14:04;9.00;;;2.72;;
64282;SDS011;50497;50.720;-2.084;2022-08-02T01:16:35;5.70;;;2.40;;
64282;SDS011;50497;50.720;-2.084;2022-08-02T01:27:28;5.03;;;1.70;;
64282;SDS011;50497;50.720;-2.084;2022-08-02T01:30:04;3.97;;;1.58;;
64282;SDS011;50497;50.720;-2.084;2022-08-02T01:32:32;4.20;;;1.48;;
64282;SDS011;50497;50.720;-2.084;2022-08-02T01:35:03;3.60;;;1.40;;
64282;SDS011;50497;50.720;-2.084;2022-08-02T01:40:16;5.07;;;1.60;;
64282;SDS011;50497;50.720;-2.084;2022-08-02T01:42:48;4.38;;;1.58;;
64282;SDS011;50497;50.720;-2.084;2022-08-02T01:45:22;4.32;;;1.65;;
64282;SDS011;50497;50.720;-2.084;2022-08-02T01:47:49;4.40;;;1.65;;
64282;SDS011;50497;50.720;-2.084;2022-08-02T01:50:19;4.10;;;1.42;;
64282;SDS011;50497;50.720;-2.084;2022-08-02T01:52:50;4.05;;;1.50;;
64282;SDS011;50497;50.720;-2.084;2022-08-02T01:55:20;5.20;;;1.55;;
64282;SDS011;50497;50.720;-2.084;2022-08-02T01:57:49;3.55;;;1.48;;
64282;SDS011;50497;50.720;-2.084;2022-08-02T02:00:18;3.92;;;1.27;;
64282;SDS011;50497;50.720;-2.084;2022-08-02T02:02:47;5.35;;;1.52;;
64282;SDS011;50497;50.720;-2.084;2022-08-02T02:05:15;4.30;;;1.50;;
64282;SDS011;50497;50.720;-2.084;2022-08-02T02:07:45;3.63;;;1.30;;
64282;SDS011;50497;50.720;-2.084;2022-08-02T02:10:14;3.08;;;1.30;;
64282;SDS011;50497;50.720;-2.084;2022-08-02T02:12:43;4.07;;;1.25;;
64282;SDS011;50497;50.720;-2.084;2022-08-02T02:15:12;3.47;;;1.20;;
64282;SDS011;50497;50.720;-2.084;2022-08-02T02:17:39;4.03;;;1.20;;
64282;SDS011;50497;50.720;-2.084;2022-08-02T02:20:17;4.70;;;1.40;;
64282;SDS011;50497;50.720;-2.084;2022-08-02T02:22:44;4.25;;;1.48;;
64282;SDS011;50497;50.720;-2.084;2022-08-02T02:25:12;4.38;;;1.40;;
64282;SDS011;50497;50.720;-2.084;2022-08-02T02:27:42;4.22;;;1.50;;
64282;SDS011;50497;50.720;-2.084;2022-08-02T02:30:16;6.35;;;1.80;;
64282;SDS011;50497;50.720;-2.084;2022-08-02T02:32:41;4.72;;;1.73;;
64282;SDS011;50497;50.720;-2.084;2022-08-02T02:35:10;4.07;;;1.52;;
64282;SDS011;50497;50.720;-2.084;2022-08-02T02:37:39;6.13;;;1.50;;
64282;SDS011;50497;50.720;-2.084;2022-08-02T02:40:05;6.15;;;1.70;;
64282;SDS011;50497;50.720;-2.084;2022-08-02T02:42:33;5.53;;;1.60;;
64282;SDS011;50497;50.720;-2.084;2022-08-02T02:44:59;4.43;;;1.65;;
64282;SDS011;50497;50.720;-2.084;2022-08-02T02:47:27;6.80;;;1.83;;
64282;SDS011;50497;50.720;-2.084;2022-08-02T02:49:54;5.88;;;1.80;;
64282;SDS011;50497;50.720;-2.084;2022-08-02T02:52:21;5.38;;;1.88;;
64282;SDS011;50497;50.720;-2.084;2022-08-02T02:54:48;5.72;;;1.73;;
64282;SDS011;50497;50.720;-2.084;2022-08-02T02:57:19;5.25;;;2.17;;
64282;SDS011;50497;50.720;-2.084;2022-08-02T02:59:45;6.30;;;1.70;;
64282;SDS011;50497;50.720;-2.084;2022-08-02T03:02:11;6.53;;;1.75;;
64282;SDS011;50497;50.720;-2.084;2022-08-02T03:04:38;4.38;;;1.70;;
64282;SDS011;50497;50.720;-2.084;2022-08-02T03:07:06;5.55;;;1.83;;
64282;SDS011;50497;50.720;-2.084;2022-08-02T03:09:32;5.65;;;1.77;;
64282;SDS011;50497;50.720;-2.084;2022-08-02T03:11:58;3.75;;;1.50;;
64282;SDS011;50497;50.720;-2.084;2022-08-02T03:14:23;5.75;;;1.60;;
64282;SDS011;50497;50.720;-2.084;2022-08-02T03:16:51;5.50;;;1.90;;
64282;SDS011;50497;50.720;-2.084;2022-08-02T03:19:18;6.15;;;1.75;;
64282;SDS011;50497;50.720;-2.084;2022-08-02T03:21:46;6.75;;;1.83;;
64282;SDS011;50497;50.720;-2.084;2022-08-02T03:24:18;4.80;;;1.40;;
64282;SDS011;50497;50.720;-2.084;2022-08-02T03:26:44;4.43;;;1.67;;
64282;SDS011;50497;50.720;-2.084;2022-08-02T03:29:10;5.43;;;1.70;;
64282;SDS011;50497;50.720;-2.084;2022-08-02T03:31:35;5.70;;;1.70;;
64282;SDS011;50497;50.720;-2.084;2022-08-02T03:34:07;6.07;;;1.73;;
64282;SDS011;50497;50.720;-2.084;2022-08-02T03:39:19;4.80;;;1.50;;
64282;SDS011;50497;50.720;-2.084;2022-08-02T03:41:45;5.85;;;1.65;;
64282;SDS011;50497;50.720;-2.084;2022-08-02T03:44:13;5.28;;;1.70;;
64282;SDS011;50497;50.720;-2.084;2022-08-02T03:46:40;5.22;;;1.70;;
64282;SDS011;50497;50.720;-2.084;2022-08-02T03:49:10;4.07;;;1.40;;
64282;SDS011;50497;50.720;-2.084;2022-08-02T03:51:40;5.28;;;1.70;;
64282;SDS011;50497;50.720;-2.084;2022-08-02T03:54:06;6.57;;;1.80;;
64282;SDS011;50497;50.720;-2.084;2022-08-02T03:56:32;5.00;;;1.58;;
64282;SDS011;50497;50.720;-2.084;2022-08-02T03:59:32;5.10;;;1.70;;
64282;SDS011;50497;50.720;-2.084;2022-08-02T04:01:50;6.18;;;1.90;;
64282;SDS011;50497;50.720;-2.084;2022-08-02T04:04:16;5.47;;;2.20;;
64282;SDS011;50497;50.720;-2.084;2022-08-02T04:06:41;6.30;;;2.00;;
64282;SDS011;50497;50.720;-2.084;2022-08-02T04:09:07;5.47;;;1.60;;
64282;SDS011;50497;50.720;-2.084;2022-08-02T04:14:05;6.28;;;1.60;;
64282;SDS011;50497;50.720;-2.084;2022-08-02T04:16:38;10.30;;;2.20;;
64282;SDS011;50497;50.720;-2.084;2022-08-02T04:19:54;6.78;;;2.00;;
64282;SDS011;50497;50.720;-2.084;2022-08-02T04:24:38;5.50;;;2.00;;
64282;SDS011;50497;50.720;-2.084;2022-08-02T04:27:08;4.38;;;1.80;;
64282;SDS011;50497;50.720;-2.084;2022-08-02T04:29:34;6.05;;;1.75;;
64282;SDS011;50497;50.720;-2.084;2022-08-02T04:32:02;4.85;;;1.55;;
64282;SDS011;50497;50.720;-2.084;2022-08-02T04:34:29;7.60;;;1.80;;
64282;SDS011;50497;50.720;-2.084;2022-08-02T04:36:55;3.95;;;1.50;;
64282;SDS011;50497;50.720;-2.084;2022-08-02T04:39:24;5.53;;;1.83;;
64282;SDS011;50497;50.720;-2.084;2022-08-02T04:41:51;5.28;;;1.77;;
64282;SDS011;50497;50.720;-2.084;2022-08-02T04:44:16;4.07;;;1.40;;
64282;SDS011;50497;50.720;-2.084;2022-08-02T04:46:43;4.55;;;1.42;;
64282;SDS011;50497;50.720;-2.084;2022-08-02T04:49:09;7.13;;;2.00;;
64282;SDS011;50497;50.720;-2.084;2022-08-02T04:51:36;4.22;;;1.80;;
64282;SDS011;50497;50.720;-2.084;2022-08-02T04:54:03;4.75;;;1.50;;
64282;SDS011;50497;50.720;-2.084;2022-08-02T04:56:32;4.55;;;1.60;;
64282;SDS011;50497;50.720;-2.084;2022-08-02T04:58:59;4.68;;;1.83;;
64282;SDS011;50497;50.720;-2.084;2022-08-02T05:03:50;4.57;;;1.40;;
64282;SDS011;50497;50.720;-2.084;2022-08-02T05:06:15;5.22;;;1.55;;
64282;SDS011;50497;50.720;-2.084;2022-08-02T05:08:41;5.22;;;1.40;;
64282;SDS011;50497;50.720;-2.084;2022-08-02T05:11:06;5.53;;;1.60;;
64282;SDS011;50497;50.720;-2.084;2022-08-02T05:13:32;5.57;;;1.67;;
64282;SDS011;50497;50.720;-2.084;2022-08-02T05:16:01;6.22;;;1.67;;
64282;SDS011;50497;50.720;-2.084;2022-08-02T05:18:29;6.13;;;1.67;;
64282;SDS011;50497;50.720;-2.084;2022-08-02T05:21:02;6.90;;;1.90;;
64282;SDS011;50497;50.720;-2.084;2022-08-02T05:23:28;7.63;;;1.90;;
64282;SDS011;50497;50.720;-2.084;2022-08-02T05:25:53;7.60;;;1.80;;
64282;SDS011;50497;50.720;-2.084;2022-08-02T05:28:19;5.75;;;1.60;;
64282;SDS011;50497;50.720;-2.084;2022-08-02T05:30:45;7.75;;;2.05;;
64282;SDS011;50497;50.720;-2.084;2022-08-02T05:33:10;6.50;;;1.77;;
64282;SDS011;50497;50.720;-2.084;2022-08-02T05:35:36;6.72;;;1.70;;
64282;SDS011;50497;50.720;-2.084;2022-08-02T05:38:02;7.13;;;1.60;;
64282;SDS011;50497;50.720;-2.084;2022-08-02T05:40:32;5.43;;;1.77;;
64282;SDS011;50497;50.720;-2.084;2022-08-02T05:42:57;5.47;;;1.80;;
64282;SDS011;50497;50.720;-2.084;2022-08-02T05:45:23;5.00;;;1.60;;
64282;SDS011;50497;50.720;-2.084;2022-08-02T05:47:48;5.72;;;1.70;;
64282;SDS011;50497;50.720;-2.084;2022-08-02T05:50:14;5.95;;;1.70;;
64282;SDS011;50497;50.720;-2.084;2022-08-02T05:52:42;5.53;;;1.70;;
64282;SDS011;50497;50.720;-2.084;2022-08-02T05:55:12;8.82;;;1.80;;
64282;SDS011;50497;50.720;-2.084;2022-08-02T06:00:13;7.05;;;1.73;;
64282;SDS011;50497;50.720;-2.084;2022-08-02T06:05:15;5.20;;;1.75;;
64282;SDS011;50497;50.720;-2.084;2022-08-02T06:07:44;8.80;;;1.90;;
64282;SDS011;50497;50.720;-2.084;2022-08-02T06:10:11;8.27;;;1.70;;
64282;SDS011;50497;50.720;-2.084;2022-08-02T06:12:47;9.15;;;1.60;;
64282;SDS011;50497;50.720;-2.084;2022-08-02T06:15:14;5.75;;;1.70;;
64282;SDS011;50497;50.720;-2.084;2022-08-02T06:17:43;7.97;;;1.55;;
64282;SDS011;50497;50.720;-2.084;2022-08-02T06:20:12;3.55;;;1.30;;
64282;SDS011;50497;50.720;-2.084;2022-08-02T06:22:42;5.82;;;2.00;;
64282;SDS011;50497;50.720;-2.084;2022-08-02T06:25:12;5.03;;;1.70;;
64282;SDS011;50497;50.720;-2.084;2022-08-02T06:27:40;6.57;;;1.77;;
64282;SDS011;50497;50.720;-2.084;2022-08-02T06:30:07;5.38;;;1.73;;
64282;SDS011;50497;50.720;-2.084;2022-08-02T06:32:33;5.30;;;1.55;;
64282;SDS011;50497;50.720;-2.084;2022-08-02T06:35:04;4.55;;;1.77;;
64282;SDS011;50497;50.720;-2.084;2022-08-02T06:40:55;6.32;;;1.60;;
64282;SDS011;50497;50.720;-2.084;2022-08-02T06:43:54;6.40;;;1.70;;
64282;SDS011;50497;50.720;-2.084;2022-08-02T06:46:24;6.10;;;1.63;;
64282;SDS011;50497;50.720;-2.084;2022-08-02T06:51:25;6.22;;;1.60;;
64282;SDS011;50497;50.720;-2.084;2022-08-02T06:53:55;5.50;;;1.80;;
64282;SDS011;50497;50.720;-2.084;2022-08-02T06:56:23;5.32;;;1.40;;
64282;SDS011;50497;50.720;-2.084;2022-08-02T06:58:49;5.57;;;1.33;;
64282;SDS011;50497;50.720;-2.084;2022-08-02T07:01:18;4.35;;;1.30;;
64282;SDS011;50497;50.720;-2.084;2022-08-02T07:03:44;5.18;;;1.40;;
64282;SDS011;50497;50.720;-2.084;2022-08-02T07:06:10;3.72;;;1.63;;
64282;SDS011;50497;50.720;-2.084;2022-08-02T07:08:38;5.35;;;1.30;;
64282;SDS011;50497;50.720;-2.084;2022-08-02T07:11:04;5.28;;;1.30;;
64282;SDS011;50497;50.720;-2.084;2022-08-02T07:13:33;4.93;;;1.40;;
64282;SDS011;50497;50.720;-2.084;2022-08-02T07:16:05;3.35;;;1.13;;
64282;SDS011;50497;50.720;-2.084;2022-08-02T07:18:31;4.65;;;1.35;;
64282;SDS011;50497;50.720;-2.084;2022-08-02T07:21:02;5.07;;;1.50;;
64282;SDS011;50497;50.720;-2.084;2022-08-02T07:23:34;2.92;;;1.20;;
64282;SDS011;50497;50.720;-2.084;2022-08-02T07:26:01;4.97;;;1.63;;
64282;SDS011;50497;50.720;-2.084;2022-08-02T07:28:29;4.72;;;1.50;;
64282;SDS011;50497;50.720;-2.084;2022-08-02T07:30:58;4.22;;;1.70;;
64282;SDS011;50497;50.720;-2.084;2022-08-02T07:33:23;4.95;;;1.50;;
64282;SDS011;50497;50.720;-2.084;2022-08-02T07:35:51;3.13;;;1.33;;
64282;SDS011;50497;50.720;-2.084;2022-08-02T07:38:25;5.03;;;1.25;;
64282;SDS011;50497;50.720;-2.084;2022-08-02T07:43:20;3.53;;;1.42;;
64282;SDS011;50497;50.720;-2.084;2022-08-02T07:45:48;4.32;;;1.42;;
64282;SDS011;50497;50.720;-2.084;2022-08-02T07:48:14;4.50;;;1.52;;
64282;SDS011;50497;50.720;-2.084;2022-08-02T07:50:43;4.80;;;1.50;;
64282;SDS011;50497;50.720;-2.084;2022-08-02T07:53:16;3.80;;;1.30;;
64282;SDS011;50497;50.720;-2.084;2022-08-02T07:55:41;3.53;;;1.00;;
64282;SDS011;50497;50.720;-2.084;2022-08-02T08:00:34;4.93;;;1.50;;
64282;SDS011;50497;50.720;-2.084;2022-08-02T08:05:28;3.20;;;1.10;;
64282;SDS011;50497;50.720;-2.084;2022-08-02T08:07:55;2.65;;;1.10;;
64282;SDS011;50497;50.720;-2.084;2022-08-02T08:10:20;3.70;;;1.00;;
64282;SDS011;50497;50.720;-2.084;2022-08-02T08:15:11;3.47;;;1.00;;
64282;SDS011;50497;50.720;-2.084;2022-08-02T08:17:37;2.75;;;1.00;;
64282;SDS011;50497;50.720;-2.084;2022-08-02T08:20:03;3.80;;;1.10;;
64282;SDS011;50497;50.720;-2.084;2022-08-02T08:22:29;3.75;;;1.10;;
64282;SDS011;50497;50.720;-2.084;2022-08-02T08:27:20;3.70;;;1.20;;
64282;SDS011;50497;50.720;-2.084;2022-08-02T08:29:47;3.28;;;1.17;;
64282;SDS011;50497;50.720;-2.084;2022-08-02T08:32:13;4.10;;;1.48;;
64282;SDS011;50497;50.720;-2.084;2022-08-02T08:34:39;4.65;;;1.25;;
64282;SDS011;50497;50.720;-2.084;2022-08-02T08:39:31;6.30;;;1.67;;
64282;SDS011;50497;50.720;-2.084;2022-08-02T08:41:56;4.28;;;1.30;;
64282;SDS011;50497;50.720;-2.084;2022-08-02T08:46:48;4.20;;;1.40;;
64282;SDS011;50497;50.720;-2.084;2022-08-02T08:51:47;3.38;;;1.40;;
64282;SDS011;50497;50.720;-2.084;2022-08-02T08:54:17;4.50;;;1.60;;
64282;SDS011;50497;50.720;-2.084;2022-08-02T08:56:44;4.97;;;1.70;;
64282;SDS011;50497;50.720;-2.084;2022-08-02T09:01:35;5.63;;;1.90;;
64282;SDS011;50497;50.720;-2.084;2022-08-02T09:04:00;5.40;;;1.77;;
64282;SDS011;50497;50.720;-2.084;2022-08-02T09:06:26;5.85;;;2.30;;
64282;SDS011;50497;50.720;-2.084;2022-08-02T09:11:23;6.45;;;1.70;;
64282;SDS011;50497;50.720;-2.084;2022-08-02T09:16:53;6.13;;;1.60;;
64282;SDS011;50497;50.720;-2.084;2022-08-02T09:19:16;3.65;;;1.65;;
64282;SDS011;50497;50.720;-2.084;2022-08-02T09:21:42;4.80;;;1.80;;
64282;SDS011;50497;50.720;-2.084;2022-08-02T09:24:15;5.05;;;1.42;;
64282;SDS011;50497;50.720;-2.084;2022-08-02T09:26:42;5.85;;;2.03;;
64282;SDS011;50497;50.720;-2.084;2022-08-02T09:31:33;3.88;;;1.70;;
64282;SDS011;50497;50.720;-2.084;2022-08-02T09:36:25;5.35;;;2.08;;
64282;SDS011;50497;50.720;-2.084;2022-08-02T09:38:57;5.00;;;1.63;;
64282;SDS011;50497;50.720;-2.084;2022-08-02T09:41:26;4.88;;;1.60;;
64282;SDS011;50497;50.720;-2.084;2022-08-02T09:43:56;3.83;;;1.52;;
64282;SDS011;50497;50.720;-2.084;2022-08-02T09:46:24;6.15;;;1.70;;
64282;SDS011;50497;50.720;-2.084;2022-08-02T09:48:54;4.45;;;1.60;;
64282;SDS011;50497;50.720;-2.084;2022-08-02T09:51:53;5.13;;;1.75;;
64282;SDS011;50497;50.720;-2.084;2022-08-02T09:54:23;4.45;;;1.60;;
64282;SDS011;50497;50.720;-2.084;2022-08-02T09:56:51;5.13;;;1.50;;
64282;SDS011;50497;50.720;-2.084;2022-08-02T09:59:22;7.45;;;1.92;;
64282;SDS011;50497;50.720;-2.084;2022-08-02T10:01:49;5.88;;;1.70;;
64282;SDS011;50497;50.720;-2.084;2022-08-02T10:04:18;5.53;;;2.20;;
64282;SDS011;50497;50.720;-2.084;2022-08-02T10:06:48;8.23;;;1.90;;
64282;SDS011;50497;50.720;-2.084;2022-08-02T10:09:15;5.40;;;1.70;;
64282;SDS011;50497;50.720;-2.084;2022-08-02T10:11:40;6.63;;;1.60;;
64282;SDS011;50497;50.720;-2.084;2022-08-02T10:16:37;7.05;;;1.88;;
64282;SDS011;50497;50.720;-2.084;2022-08-02T10:19:04;6.40;;;1.83;;
64282;SDS011;50497;50.720;-2.084;2022-08-02T10:24:18;6.80;;;2.00;;
64282;SDS011;50497;50.720;-2.084;2022-08-02T10:26:47;7.25;;;1.92;;
64282;SDS011;50497;50.720;-2.084;2022-08-02T10:29:17;10.10;;;2.13;;
64282;SDS011;50497;50.720;-2.084;2022-08-02T10:36:38;6.07;;;2.00;;
64282;SDS011;50497;50.720;-2.084;2022-08-02T10:39:05;6.35;;;1.90;;
64282;SDS011;50497;50.720;-2.084;2022-08-02T10:42:05;6.18;;;2.15;;
64282;SDS011;50497;50.720;-2.084;2022-08-02T10:44:27;6.15;;;1.90;;
64282;SDS011;50497;50.720;-2.084;2022-08-02T10:52:17;6.15;;;2.13;;
64282;SDS011;50497;50.720;-2.084;2022-08-02T10:54:49;7.07;;;2.30;;
64282;SDS011;50497;50.720;-2.084;2022-08-02T11:00:11;5.57;;;2.10;;
64282;SDS011;50497;50.720;-2.084;2022-08-02T11:02:49;6.93;;;2.40;;
64282;SDS011;50497;50.720;-2.084;2022-08-02T11:05:38;8.07;;;2.30;;
64282;SDS011;50497;50.720;-2.084;2022-08-02T11:08:19;6.20;;;2.47;;
64282;SDS011;50497;50.720;-2.084;2022-08-02T11:10:46;6.90;;;2.50;;
64282;SDS011;50497;50.720;-2.084;2022-08-02T11:18:18;8.30;;;2.28;;
64282;SDS011;50497;50.720;-2.084;2022-08-02T11:20:45;6.38;;;2.42;;
64282;SDS011;50497;50.720;-2.084;2022-08-02T11:26:00;6.68;;;2.83;;
64282;SDS011;50497;50.720;-2.084;2022-08-02T11:28:29;6.82;;;2.30;;
64282;SDS011;50497;50.720;-2.084;2022-08-02T11:30:56;11.52;;;3.10;;
64282;SDS011;50497;50.720;-2.084;2022-08-02T11:33:29;7.63;;;2.67;;
64282;SDS011;50497;50.720;-2.084;2022-08-02T11:36:04;7.60;;;2.75;;
64282;SDS011;50497;50.720;-2.084;2022-08-02T11:38:31;7.25;;;2.80;;
64282;SDS011;50497;50.720;-2.084;2022-08-02T11:40:57;9.70;;;2.80;;
64282;SDS011;50497;50.720;-2.084;2022-08-02T11:43:24;7.53;;;2.60;;
64282;SDS011;50497;50.720;-2.084;2022-08-02T11:45:51;7.32;;;2.85;;
64282;SDS011;50497;50.720;-2.084;2022-08-02T11:48:33;8.98;;;2.88;;
64282;SDS011;50497;50.720;-2.084;2022-08-02T11:51:12;8.90;;;2.55;;
64282;SDS011;50497;50.720;-2.084;2022-08-02T11:53:44;8.60;;;3.00;;
64282;SDS011;50497;50.720;-2.084;2022-08-02T11:56:10;9.70;;;3.10;;
64282;SDS011;50497;50.720;-2.084;2022-08-02T11:58:40;10.15;;;3.00;;
64282;SDS011;50497;50.720;-2.084;2022-08-02T12:01:24;12.18;;;2.92;;
64282;SDS011;50497;50.720;-2.084;2022-08-02T12:03:49;9.43;;;2.78;;
64282;SDS011;50497;50.720;-2.084;2022-08-02T12:08:42;11.15;;;3.25;;
64282;SDS011;50497;50.720;-2.084;2022-08-02T12:11:07;7.32;;;2.58;;
64282;SDS011;50497;50.720;-2.084;2022-08-02T12:13:40;7.95;;;2.75;;
64282;SDS011;50497;50.720;-2.084;2022-08-02T12:16:11;8.80;;;2.72;;
64282;SDS011;50497;50.720;-2.084;2022-08-02T12:18:56;7.55;;;2.78;;
64282;SDS011;50497;50.720;-2.084;2022-08-02T12:21:41;6.57;;;2.40;;
64282;SDS011;50497;50.720;-2.084;2022-08-02T12:24:07;10.20;;;3.00;;
64282;SDS011;50497;50.720;-2.084;2022-08-02T12:26:40;6.25;;;2.30;;
64282;SDS011;50497;50.720;-2.084;2022-08-02T12:29:10;6.15;;;2.50;;
64282;SDS011;50497;50.720;-2.084;2022-08-02T12:34:12;12.02;;;2.85;;
64282;SDS011;50497;50.720;-2.084;2022-08-02T12:37:04;7.35;;;2.75;;
64282;SDS011;50497;50.720;-2.084;2022-08-02T12:39:43;9.18;;;2.70;;
64282;SDS011;50497;50.720;-2.084;2022-08-02T12:42:10;10.52;;;2.88;;
64282;SDS011;50497;50.720;-2.084;2022-08-02T12:44:38;10.55;;;3.05;;
64282;SDS011;50497;50.720;-2.084;2022-08-02T12:47:14;10.38;;;2.97;;
64282;SDS011;50497;50.720;-2.084;2022-08-02T12:49:40;9.25;;;2.95;;
64282;SDS011;50497;50.720;-2.084;2022-08-02T12:52:22;10.82;;;3.17;;
64282;SDS011;50497;50.720;-2.084;2022-08-02T12:54:48;7.60;;;2.85;;
64282;SDS011;50497;50.720;-2.084;2022-08-02T12:57:15;14.60;;;3.60;;
64282;SDS011;50497;50.720;-2.084;2022-08-02T12:59:43;10.02;;;3.10;;
64282;SDS011;50497;50.720;-2.084;2022-08-02T13:02:15;10.18;;;2.95;;
64282;SDS011;50497;50.720;-2.084;2022-08-02T13:04:41;9.48;;;3.20;;
64282;SDS011;50497;50.720;-2.084;2022-08-02T13:07:11;11.90;;;3.45;;
64282;SDS011;50497;50.720;-2.084;2022-08-02T13:09:39;10.00;;;3.22;;
64282;SDS011;50497;50.720;-2.084;2022-08-02T13:12:12;14.13;;;3.50;;
64282;SDS011;50497;50.720;-2.084;2022-08-02T13:14:37;11.15;;;3.38;;
64282;SDS011;50497;50.720;-2.084;2022-08-02T13:17:13;11.10;;;3.38;;
64282;SDS011;50497;50.720;-2.084;2022-08-02T13:19:39;9.50;;;3.30;;
64282;SDS011;50497;50.720;-2.084;2022-08-02T13:22:06;10.07;;;3.15;;
64282;SDS011;50497;50.720;-2.084;2022-08-02T13:24:35;11.15;;;3.47;;
64282;SDS011;50497;50.720;-2.084;2022-08-02T13:27:01;9.98;;;3.50;;
64282;SDS011;50497;50.720;-2.084;2022-08-02T13:29:33;10.57;;;3.72;;
64282;SDS011;50497;50.720;-2.084;2022-08-02T13:32:02;11.85;;;3.70;;
64282;SDS011;50497;50.720;-2.084;2022-08-02T13:34:28;11.70;;;3.30;;
64282;SDS011;50497;50.720;-2.084;2022-08-02T13:36:54;13.60;;;3.50;;
64282;SDS011;50497;50.720;-2.084;2022-08-02T13:39:19;12.40;;;3.30;;
64282;SDS011;50497;50.720;-2.084;2022-08-02T13:41:45;11.75;;;3.67;;
64282;SDS011;50497;50.720;-2.084;2022-08-02T13:44:13;10.25;;;3.03;;
64282;SDS011;50497;50.720;-2.084;2022-08-02T13:46:39;11.77;;;3.03;;
64282;SDS011;50497;50.720;-2.084;2022-08-02T13:49:05;11.07;;;3.35;;
64282;SDS011;50497;50.720;-2.084;2022-08-02T13:51:30;11.25;;;3.50;;
64282;SDS011;50497;50.720;-2.084;2022-08-02T13:53:56;10.15;;;3.42;;
64282;SDS011;50497;50.720;-2.084;2022-08-02T13:56:21;11.90;;;3.58;;
64282;SDS011;50497;50.720;-2.084;2022-08-02T13:58:47;12.40;;;3.45;;
64282;SDS011;50497;50.720;-2.084;2022-08-02T14:01:13;13.77;;;3.55;;
64282;SDS011;50497;50.720;-2.084;2022-08-02T14:03:38;11.20;;;3.33;;
64282;SDS011;50497;50.720;-2.084;2022-08-02T14:06:04;10.23;;;3.17;;
64282;SDS011;50497;50.720;-2.084;2022-08-02T14:08:31;10.30;;;3.00;;
64282;SDS011;50497;50.720;-2.084;2022-08-02T14:10:57;15.10;;;4.10;;
64282;SDS011;50497;50.720;-2.084;2022-08-02T14:13:22;61.67;;;6.13;;
64282;SDS011;50497;50.720;-2.084;2022-08-02T14:15:48;15.32;;;3.22;;
64282;SDS011;50497;50.720;-2.084;2022-08-02T14:18:14;11.27;;;3.20;;
64282;SDS011;50497;50.720;-2.084;2022-08-02T14:20:41;14.10;;;3.42;;
64282;SDS011;50497;50.720;-2.084;2022-08-02T14:23:07;16.75;;;4.05;;
64282;SDS011;50497;50.720;-2.084;2022-08-02T14:25:33;12.40;;;3.75;;
64282;SDS011;50497;50.720;-2.084;2022-08-02T14:28:02;10.57;;;3.70;;
64282;SDS011;50497;50.720;-2.084;2022-08-02T14:30:28;12.55;;;3.53;;
64282;SDS011;50497;50.720;-2.084;2022-08-02T14:32:54;10.10;;;2.78;;
64282;SDS011;50497;50.720;-2.084;2022-08-02T14:35:19;12.15;;;3.58;;
64282;SDS011;50497;50.720;-2.084;2022-08-02T14:37:45;10.65;;;3.47;;
64282;SDS011;50497;50.720;-2.084;2022-08-02T14:40:11;15.60;;;3.90;;
64282;SDS011;50497;50.720;-2.084;2022-08-02T14:42:38;11.25;;;3.80;;
64282;SDS011;50497;50.720;-2.084;2022-08-02T14:45:03;11.65;;;3.60;;
64282;SDS011;50497;50.720;-2.084;2022-08-02T14:47:30;15.48;;;3.90;;
64282;SDS011;50497;50.720;-2.084;2022-08-02T14:49:55;11.13;;;5.03;;
64282;SDS011;50497;50.720;-2.084;2022-08-02T14:52:21;11.95;;;3.63;;
64282;SDS011;50497;50.720;-2.084;2022-08-02T14:54:46;16.08;;;4.10;;
64282;SDS011;50497;50.720;-2.084;2022-08-02T14:57:15;12.95;;;4.00;;
64282;SDS011;50497;50.720;-2.084;2022-08-02T14:59:41;11.45;;;3.88;;
64282;SDS011;50497;50.720;-2.084;2022-08-02T15:02:06;13.50;;;3.90;;
64282;SDS011;50497;50.720;-2.084;2022-08-02T15:04:32;12.63;;;3.72;;
64282;SDS011;50497;50.720;-2.084;2022-08-02T15:06:59;16.15;;;4.10;;
64282;SDS011;50497;50.720;-2.084;2022-08-02T15:09:25;12.02;;;3.50;;
64282;SDS011;50497;50.720;-2.084;2022-08-02T15:11:51;13.48;;;3.60;;
64282;SDS011;50497;50.720;-2.084;2022-08-02T15:14:17;15.05;;;3.83;;
64282;SDS011;50497;50.720;-2.084;2022-08-02T15:16:44;11.80;;;4.18;;
64282;SDS011;50497;50.720;-2.084;2022-08-02T15:19:10;11.07;;;3.80;;
64282;SDS011;50497;50.720;-2.084;2022-08-02T15:21:35;12.05;;;3.58;;
64282;SDS011;50497;50.720;-2.084;2022-08-02T15:24:01;12.38;;;3.53;;
64282;SDS011;50497;50.720;-2.084;2022-08-02T15:26:26;14.48;;;3.50;;
64282;SDS011;50497;50.720;-2.084;2022-08-02T15:28:52;11.80;;;3.45;;
64282;SDS011;50497;50.720;-2.084;2022-08-02T15:31:18;10.00;;;3.13;;
64282;SDS011;50497;50.720;-2.084;2022-08-02T15:33:44;12.68;;;3.40;;
64282;SDS011;50497;50.720;-2.084;2022-08-02T15:36:09;12.77;;;3.40;;
64282;SDS011;50497;50.720;-2.084;2022-08-02T15:38:36;10.88;;;3.60;;
64282;SDS011;50497;50.720;-2.084;2022-08-02T15:41:01;8.75;;;2.45;;
64282;SDS011;50497;50.720;-2.084;2022-08-02T15:43:28;11.32;;;3.60;;
64282;SDS011;50497;50.720;-2.084;2022-08-02T15:45:54;11.05;;;3.55;;
64282;SDS011;50497;50.720;-2.084;2022-08-02T15:48:20;11.23;;;3.10;;
64282;SDS011;50497;50.720;-2.084;2022-08-02T15:50:46;12.75;;;3.40;;
64282;SDS011;50497;50.720;-2.084;2022-08-02T15:53:11;13.77;;;3.40;;
64282;SDS011;50497;50.720;-2.084;2022-08-02T15:55:37;10.38;;;3.08;;
64282;SDS011;50497;50.720;-2.084;2022-08-02T15:58:05;10.68;;;3.03;;
64282;SDS011;50497;50.720;-2.084;2022-08-02T16:00:32;8.23;;;2.67;;
64282;SDS011;50497;50.720;-2.084;2022-08-02T16:02:57;10.75;;;3.22;;
64282;SDS011;50497;50.720;-2.084;2022-08-02T16:05:23;10.75;;;3.28;;
64282;SDS011;50497;50.720;-2.084;2022-08-02T16:07:49;16.00;;;3.40;;
64282;SDS011;50497;50.720;-2.084;2022-08-02T16:10:14;12.93;;;3.50;;
64282;SDS011;50497;50.720;-2.084;2022-08-02T16:12:40;9.77;;;3.40;;